Time;durP1;ratioP1;P1;durP2;ratioP2;P2;SDS_P1;SDS_P2;PMS_P1;PMS_P2;Temp;Humidity;BMP_temperature;BMP_pressure;BME280_temperature;BME280_humidity;BME280_pressure;Samples;Min_cycle;Max_cycle;Signal;HPM_P1;HPM_P2
2021/11/17 02:27:32;;;;;;;0.00;0.00;;;;;19.00;100514.00;;;;5125135;27;20036;-80
2021/11/17 02:30:14;;;;;;;0.68;0.32;;;;;19.10;100526.00;;;;5124414;27;20051;-81
2021/11/17 02:33:18;;;;;;;0.00;0.00;;;;;19.10;100510.00;;;;5123688;27;20130;-80
2021/11/17 02:36:00;;;;;;;0.10;0.10;;;;;19.10;100488.00;;;;5124600;27;20046;-80
2021/11/17 02:38:37;;;;;;;0.00;0.00;;;;;19.00;100488.00;;;;5124483;27;20078;-81
2021/11/17 02:41:31;;;;;;;0.00;0.00;;;;;19.00;100501.00;;;;5125590;27;20027;-80
2021/11/17 02:44:23;;;;;;;0.17;0.17;;;;;19.00;100508.00;;;;5124404;27;20074;-81
2021/11/17 02:47:27;;;;;;;0.00;0.00;;;;;19.10;100504.00;;;;5123972;27;20131;-80
2021/11/17 02:50:18;;;;;;;2.80;0.90;;;;;19.10;100480.00;;;;5123949;27;20046;-79
2021/11/17 02:52:54;;;;;;;1.50;1.27;;;;;19.10;100460.00;;;;5123203;28;20039;-78
2021/11/17 02:55:43;;;;;;;0.57;0.57;;;;;19.00;100449.00;;;;5123017;28;20690;-81
2021/11/17 02:58:33;;;;;;;0.00;0.00;;;;;19.00;100466.00;;;;5119317;28;20063;-81
2021/11/17 03:01:22;;;;;;;0.00;0.00;;;;;19.00;100460.00;;;;5110496;28;20048;-80
2021/11/17 03:04:17;;;;;;;1.70;0.98;;;;;19.00;100438.00;;;;5110630;28;20035;-80
2021/11/17 03:06:53;;;;;;;17.88;1.75;;;;;19.00;100442.00;;;;5110165;28;20528;-80
2021/11/17 03:09:54;;;;;;;1.90;0.60;;;;;19.00;100434.00;;;;5108999;28;20401;-79
2021/11/17 03:12:37;;;;;;;0.10;0.10;;;;;19.00;100424.00;;;;5110038;28;20413;-81
2021/11/17 03:15:27;;;;;;;0.52;0.32;;;;;19.00;100409.00;;;;5109557;28;20036;-78
2021/11/17 03:18:06;;;;;;;0.00;0.00;;;;;19.00;100412.00;;;;5109852;28;20048;-80
2021/11/17 03:21:13;;;;;;;0.63;0.52;;;;;19.00;100388.00;;;;5108843;28;20609;-81
2021/11/17 03:24:08;;;;;;;0.75;0.30;;;;;19.00;100386.00;;;;5108737;28;20072;-79
2021/11/17 03:26:54;;;;;;;0.00;0.00;;;;;19.00;100370.00;;;;5109703;28;20043;-80
2021/11/17 03:29:27;;;;;;;0.00;0.00;;;;;19.00;100373.00;;;;5109362;28;20050;-80
2021/11/17 03:32:12;;;;;;;0.00;0.00;;;;;19.00;100367.00;;;;5110047;28;20540;-80
2021/11/17 03:34:55;;;;;;;0.00;0.00;;;;;19.00;100372.00;;;;5110096;28;20440;-82
2021/11/17 03:37:40;;;;;;;0.00;0.00;;;;;19.00;100365.00;;;;5109934;28;20043;-80
2021/11/17 03:40:23;;;;;;;0.50;0.20;;;;;19.00;100355.00;;;;5109650;28;20044;-80
2021/11/17 03:42:53;;;;;;;0.00;0.00;;;;;19.00;100364.00;;;;5109252;28;20070;-80
2021/11/17 03:45:34;;;;;;;0.00;0.00;;;;;18.90;100362.00;;;;5109008;28;20032;-81
2021/11/17 03:48:19;;;;;;;0.00;0.00;;;;;19.00;100342.00;;;;5091359;28;20407;-81
2021/11/17 03:50:59;;;;;;;0.00;0.00;;;;;19.00;100350.00;;;;5107347;28;20051;-80
2021/11/17 03:53:38;;;;;;;0.00;0.00;;;;;19.00;100368.00;;;;5109796;28;20048;-81
2021/11/17 03:56:26;;;;;;;2.22;1.33;;;;;19.10;100369.00;;;;5109561;28;20050;-80
2021/11/17 03:59:19;;;;;;;0.00;0.00;;;;;19.00;100334.00;;;;5107896;28;20039;-81
2021/11/17 04:01:50;;;;;;;0.00;0.00;;;;;19.00;100302.00;;;;5108791;28;20456;-82
2021/11/17 04:05:19;;;;;;;0.00;0.00;;;;;19.00;100290.00;;;;5108748;28;20616;-80
2021/11/17 04:08:01;;;;;;;0.20;0.20;;;;;19.00;100303.00;;;;5085632;28;20468;-81
2021/11/17 04:11:00;;;;;;;0.80;0.75;;;;;19.00;100310.00;;;;5085989;28;20162;-81
2021/11/17 04:13:35;;;;;;;0.28;0.28;;;;;19.10;100309.00;;;;5105004;28;20048;-81
2021/11/17 04:16:30;;;;;;;0.00;0.00;;;;;19.10;100304.00;;;;5108639;28;20413;-80
2021/11/17 04:19:27;;;;;;;0.00;0.00;;;;;19.10;100322.00;;;;5108290;28;20052;-81
2021/11/17 04:22:03;;;;;;;0.00;0.00;;;;;19.10;100322.00;;;;5107408;28;20043;-82
2021/11/17 04:24:51;;;;;;;0.32;0.32;;;;;19.00;100308.00;;;;5108129;28;20042;-82
2021/11/17 04:27:35;;;;;;;0.00;0.00;;;;;19.10;100308.00;;;;5108768;28;20071;-82
2021/11/17 04:30:11;;;;;;;0.10;0.10;;;;;19.10;100319.00;;;;5108536;28;20043;-82
2021/11/17 04:33:02;;;;;;;0.00;0.00;;;;;19.10;100337.00;;;;5108483;28;20127;-83
2021/11/17 04:35:37;;;;;;;0.75;0.75;;;;;19.10;100333.00;;;;5108394;28;20043;-81
2021/11/17 04:38:25;;;;;;;0.00;0.00;;;;;19.10;100346.00;;;;5106726;28;20053;-82
2021/11/17 04:41:16;;;;;;;0.00;0.00;;;;;19.10;100347.00;;;;5107349;28;20433;-80
2021/11/17 04:44:12;;;;;;;0.00;0.00;;;;;19.20;100353.00;;;;5108220;28;20050;-80
2021/11/17 04:47:22;;;;;;;10.02;0.47;;;;;19.10;100340.00;;;;5106010;28;20039;-81
2021/11/17 04:50:28;;;;;;;0.00;0.00;;;;;19.10;100317.00;;;;5106750;28;20043;-82
2021/11/17 04:53:28;;;;;;;0.00;0.00;;;;;19.20;100309.00;;;;5108125;28;20036;-81
2021/11/17 04:56:05;;;;;;;0.00;0.00;;;;;19.10;100298.00;;;;5108264;28;20039;-80
2021/11/17 04:58:41;;;;;;;0.00;0.00;;;;;19.10;100298.00;;;;5108128;28;20062;-81
2021/11/17 05:01:14;;;;;;;0.40;0.40;;;;;19.20;100298.00;;;;5108536;28;20127;-82
2021/11/17 05:04:03;;;;;;;0.00;0.00;;;;;19.20;100291.00;;;;5108124;28;20124;-82
2021/11/17 05:06:37;;;;;;;0.00;0.00;;;;;19.10;100295.00;;;;5108402;28;20050;-82
2021/11/17 05:09:29;;;;;;;0.00;0.00;;;;;19.00;100280.00;;;;5111842;28;20089;-80
2021/11/17 05:12:26;;;;;;;0.10;0.10;;;;;19.00;100291.00;;;;5113006;28;20058;-81
2021/11/17 05:15:20;;;;;;;0.00;0.00;;;;;19.10;100295.00;;;;5107602;28;20050;-82
2021/11/17 05:18:06;;;;;;;0.10;0.05;;;;;19.10;100287.00;;;;5089737;28;20870;-83
2021/11/17 05:20:44;;;;;;;0.00;0.00;;;;;19.10;100278.00;;;;5106414;28;20120;-81
2021/11/17 05:23:14;;;;;;;0.10;0.10;;;;;19.10;100281.00;;;;5107885;28;20043;-81
2021/11/17 05:26:08;;;;;;;0.00;0.00;;;;;19.00;100282.00;;;;5106122;28;20050;-83
2021/11/17 05:28:56;;;;;;;0.10;0.10;;;;;19.10;100254.00;;;;5107942;28;20123;-80
2021/11/17 05:31:35;;;;;;;2.22;1.38;;;;;19.10;100223.00;;;;5108143;28;20077;-82
2021/11/17 05:34:37;;;;;;;0.10;0.10;;;;;19.10;100234.00;;;;5107518;28;20515;-84
2021/11/17 05:37:39;;;;;;;3.63;0.20;;;;;19.00;100231.00;;;;5105811;28;20512;-81
2021/11/17 05:40:24;;;;;;;0.30;0.30;;;;;19.10;100235.00;;;;5106769;28;20063;-81
2021/11/17 05:43:24;;;;;;;0.00;0.00;;;;;19.10;100243.00;;;;5106874;28;20044;-81
2021/11/17 05:46:03;;;;;;;0.00;0.00;;;;;19.00;100241.00;;;;5108365;28;20052;-83
2021/11/17 05:48:51;;;;;;;0.00;0.00;;;;;19.00;100244.00;;;;5106967;28;20043;-80
2021/11/17 05:51:21;;;;;;;0.00;0.00;;;;;19.00;100227.00;;;;5107225;28;20055;-80
2021/11/17 05:53:59;;;;;;;0.00;0.00;;;;;19.00;100221.00;;;;5109191;28;20088;-83
2021/11/17 05:56:39;;;;;;;0.00;0.00;;;;;18.90;100210.00;;;;5108054;28;20403;-81
2021/11/17 05:59:38;;;;;;;0.00;0.00;;;;;18.90;100201.00;;;;5107420;28;20134;-83
2021/11/17 06:02:29;;;;;;;0.00;0.00;;;;;18.90;100188.00;;;;5106805;28;20044;-83
2021/11/17 06:04:59;;;;;;;0.00;0.00;;;;;18.90;100199.00;;;;5107103;28;20043;-80
2021/11/17 06:07:27;;;;;;;0.00;0.00;;;;;18.90;100202.00;;;;5108678;28;20054;-84
2021/11/17 06:10:15;;;;;;;0.00;0.00;;;;;18.90;100207.00;;;;5107868;28;20044;-82
2021/11/17 06:12:46;;;;;;;0.00;0.00;;;;;18.90;100195.00;;;;5106355;28;20138;-80
2021/11/17 06:15:18;;;;;;;0.00;0.00;;;;;18.90;100188.00;;;;5106945;28;20534;-83
2021/11/17 06:17:51;;;;;;;0.00;0.00;;;;;19.00;100191.00;;;;5107295;28;20048;-83
2021/11/17 06:20:23;;;;;;;0.00;0.00;;;;;19.00;100192.00;;;;5106897;28;20414;-79
2021/11/17 06:23:03;;;;;;;0.00;0.00;;;;;19.00;100190.00;;;;5106970;28;20053;-80
2021/11/17 06:25:33;;;;;;;0.00;0.00;;;;;19.00;100188.00;;;;5107357;28;20035;-81
2021/11/17 06:28:04;;;;;;;0.00;0.00;;;;;19.00;100176.00;;;;5105264;28;20040;-82
2021/11/17 06:30:40;;;;;;;0.00;0.00;;;;;19.00;100173.00;;;;5106681;28;20059;-81
2021/11/17 06:33:11;;;;;;;0.00;0.00;;;;;19.00;100180.00;;;;5106983;28;20533;-82
2021/11/17 06:35:40;;;;;;;0.00;0.00;;;;;19.00;100174.00;;;;5109465;27;20062;-83
2021/11/17 06:38:11;;;;;;;0.00;0.00;;;;;19.00;100177.00;;;;5111112;28;20044;-80
2021/11/17 06:40:43;;;;;;;0.00;0.00;;;;;19.00;100163.00;;;;5110481;28;20498;-85
2021/11/17 06:43:14;;;;;;;0.00;0.00;;;;;18.90;100179.00;;;;5110453;28;20036;-85
2021/11/17 06:45:52;;;;;;;0.00;0.00;;;;;19.00;100162.00;;;;5109870;28;20050;-84
2021/11/17 06:48:24;;;;;;;0.00;0.00;;;;;18.90;100158.00;;;;5109922;28;20044;-83
2021/11/17 06:50:55;;;;;;;0.00;0.00;;;;;18.90;100167.00;;;;5110449;28;20048;-83
2021/11/17 06:53:27;;;;;;;0.00;0.00;;;;;19.00;100158.00;;;;5108752;28;20557;-81
2021/11/17 06:55:57;;;;;;;0.00;0.00;;;;;19.00;100167.00;;;;5109962;28;20044;-85
2021/11/17 06:58:27;;;;;;;0.00;0.00;;;;;19.00;100162.00;;;;5110136;28;20060;-79
2021/11/17 07:00:56;;;;;;;0.00;0.00;;;;;18.90;100151.00;;;;5110709;28;20039;-80
2021/11/17 07:03:28;;;;;;;0.00;0.00;;;;;18.90;100147.00;;;;5110837;28;20032;-84
2021/11/17 07:05:58;;;;;;;0.00;0.00;;;;;18.90;100142.00;;;;5108378;28;20047;-79
2021/11/17 07:08:28;;;;;;;0.00;0.00;;;;;18.90;100147.00;;;;5108311;28;20080;-83
2021/11/17 07:10:58;;;;;;;0.00;0.00;;;;;18.90;100145.00;;;;5109603;28;20051;-81
2021/11/17 07:13:28;;;;;;;0.20;0.20;;;;;18.90;100146.00;;;;5109662;28;20199;-82
2021/11/17 07:15:58;;;;;;;0.00;0.00;;;;;18.90;100147.00;;;;5108347;28;20047;-80
2021/11/17 07:18:28;;;;;;;0.00;0.00;;;;;18.90;100156.00;;;;5109193;28;20040;-79
2021/11/17 07:20:57;;;;;;;0.00;0.00;;;;;18.90;100155.00;;;;5108326;28;20051;-84
2021/11/17 07:23:27;;;;;;;0.00;0.00;;;;;18.90;100157.00;;;;5109575;28;20040;-79
2021/11/17 07:25:56;;;;;;;0.00;0.00;;;;;18.90;100147.00;;;;5108238;28;20052;-83
2021/11/17 07:28:25;;;;;;;0.00;0.00;;;;;18.90;100130.00;;;;5109773;28;20130;-82
2021/11/17 07:30:56;;;;;;;0.00;0.00;;;;;19.00;100114.00;;;;5109411;28;20055;-82
2021/11/17 07:33:25;;;;;;;0.00;0.00;;;;;19.00;100106.00;;;;5109534;28;20112;-81
2021/11/17 07:35:55;;;;;;;0.30;0.30;;;;;19.00;100105.00;;;;5108515;28;20443;-79
2021/11/17 07:38:25;;;;;;;0.00;0.00;;;;;19.00;100109.00;;;;5109392;28;20536;-82
2021/11/17 07:40:55;;;;;;;0.00;0.00;;;;;19.00;100105.00;;;;5109301;28;20047;-84
2021/11/17 07:43:26;;;;;;;0.00;0.00;;;;;19.00;100097.00;;;;5109528;28;20562;-81
2021/11/17 07:45:57;;;;;;;0.00;0.00;;;;;19.00;100094.00;;;;5108992;28;20032;-82
2021/11/17 07:48:31;;;;;;;0.00;0.00;;;;;19.00;100109.00;;;;5109333;28;20067;-82
2021/11/17 07:51:02;;;;;;;0.00;0.00;;;;;19.00;100101.00;;;;5108104;28;20083;-81
2021/11/17 07:53:33;;;;;;;0.00;0.00;;;;;18.90;100101.00;;;;5109458;28;20047;-84
2021/11/17 07:56:05;;;;;;;0.00;0.00;;;;;18.90;100115.00;;;;5107160;28;20044;-80
2021/11/17 07:58:42;;;;;;;0.00;0.00;;;;;19.00;100117.00;;;;5107686;28;20518;-84
2021/11/17 08:01:13;;;;;;;0.00;0.00;;;;;19.00;100124.00;;;;5109065;28;20062;-83
2021/11/17 08:03:46;;;;;;;0.00;0.00;;;;;19.00;100142.00;;;;5108553;28;20341;-82
2021/11/17 08:06:20;;;;;;;0.00;0.00;;;;;18.90;100132.00;;;;5108488;28;20048;-82
2021/11/17 08:08:52;;;;;;;0.00;0.00;;;;;19.00;100143.00;;;;5108642;28;20043;-83
2021/11/17 08:11:22;;;;;;;;;;;;;19.00;100161.00;;;;5109192;28;21215;-79
2021/11/17 08:13:52;;;;;;;0.00;0.00;;;;;19.00;100163.00;;;;5107412;28;19973;-84
2021/11/17 08:16:21;;;;;;;0.00;0.00;;;;;19.00;100181.00;;;;5108759;28;20059;-82
2021/11/17 08:18:51;;;;;;;0.00;0.00;;;;;19.00;100184.00;;;;5108411;28;20059;-81
2021/11/17 08:21:21;;;;;;;0.00;0.00;;;;;19.10;100197.00;;;;5108192;28;20047;-85
2021/11/17 08:23:51;;;;;;;0.00;0.00;;;;;19.10;100211.00;;;;5108439;27;20517;-82
2021/11/17 08:26:22;;;;;;;0.00;0.00;;;;;19.10;100215.00;;;;5108621;28;20130;-82
2021/11/17 08:28:52;;;;;;;0.00;0.00;;;;;19.10;100226.00;;;;5108175;28;20421;-82
2021/11/17 08:31:24;;;;;;;0.08;0.08;;;;;19.00;100222.00;;;;5108281;27;20051;-84
2021/11/17 08:33:55;;;;;;;0.00;0.00;;;;;19.10;100226.00;;;;5106508;28;20062;-80
2021/11/17 08:36:25;;;;;;;0.00;0.00;;;;;19.10;100228.00;;;;5108249;28;20537;-82
2021/11/17 08:38:55;;;;;;;0.00;0.00;;;;;19.20;100224.00;;;;5108763;28;20129;-85
2021/11/17 08:41:26;;;;;;;0.00;0.00;;;;;19.20;100230.00;;;;5107150;28;20134;-80
2021/11/17 08:43:55;;;;;;;0.00;0.00;;;;;19.20;100239.00;;;;5107115;28;20055;-82
2021/11/17 08:46:26;;;;;;;0.00;0.00;;;;;19.20;100241.00;;;;5109101;28;20134;-81
2021/11/17 08:48:56;;;;;;;0.00;0.00;;;;;19.30;100248.00;;;;5108851;28;20048;-81
2021/11/17 08:51:29;;;;;;;0.00;0.00;;;;;19.30;100270.00;;;;5107079;28;20401;-82
2021/11/17 08:54:02;;;;;;;0.00;0.00;;;;;19.30;100257.00;;;;5108845;28;20050;-81
2021/11/17 08:56:36;;;;;;;0.20;0.10;;;;;19.30;100265.00;;;;5107409;28;20506;-82
2021/11/17 08:59:06;;;;;;;0.20;0.20;;;;;19.30;100274.00;;;;5107849;28;20522;-80
2021/11/17 09:01:36;;;;;;;0.00;0.00;;;;;19.30;100275.00;;;;5108949;28;20047;-83
2021/11/17 09:04:06;;;;;;;0.63;0.35;;;;;19.40;100290.00;;;;5107938;28;20430;-86
2021/11/17 09:06:39;;;;;;;2.28;1.00;;;;;19.40;100279.00;;;;5108111;28;20048;-83
2021/11/17 09:09:09;;;;;;;0.00;0.00;;;;;19.40;100296.00;;;;5107762;28;20061;-83
2021/11/17 09:11:40;;;;;;;0.00;0.00;;;;;19.40;100300.00;;;;5107591;28;20543;-82
2021/11/17 09:14:11;;;;;;;0.00;0.00;;;;;19.60;100308.00;;;;5108612;28;20521;-83
2021/11/17 09:16:45;;;;;;;0.00;0.00;;;;;19.80;100299.00;;;;5106313;28;20571;-81
2021/11/17 09:19:17;;;;;;;0.00;0.00;;;;;19.80;100299.00;;;;5107376;28;20039;-82
2021/11/17 09:21:47;;;;;;;0.80;0.73;;;;;19.90;100303.00;;;;5105783;28;20036;-83
2021/11/17 09:24:19;;;;;;;1.20;0.77;;;;;20.00;100291.00;;;;5106645;28;20402;-83
2021/11/17 09:26:51;;;;;;;0.00;0.00;;;;;20.10;100287.00;;;;5107768;28;20494;-81
2021/11/17 09:29:23;;;;;;;0.32;0.30;;;;;20.10;100314.00;;;;5107775;28;20031;-82
2021/11/17 09:31:54;;;;;;;0.10;0.10;;;;;20.20;100298.00;;;;5107765;28;20150;-81
2021/11/17 09:34:24;;;;;;;0.00;0.00;;;;;20.30;100321.00;;;;5106676;28;20089;-85
2021/11/17 09:36:53;;;;;;;0.00;0.00;;;;;20.30;100305.00;;;;5106223;28;20040;-82
2021/11/17 09:39:23;;;;;;;0.80;0.73;;;;;20.30;100331.00;;;;5106606;28;20062;-83
2021/11/17 09:41:54;;;;;;;0.00;0.00;;;;;20.20;100332.00;;;;5105901;28;20043;-83
2021/11/17 09:44:32;;;;;;;0.00;0.00;;;;;20.20;100331.00;;;;5105816;28;20418;-80
2021/11/17 09:47:06;;;;;;;0.00;0.00;;;;;20.20;100319.00;;;;5107196;28;20070;-83
2021/11/17 09:49:50;;;;;;;0.00;0.00;;;;;20.30;100324.00;;;;5106603;28;20104;-81
2021/11/17 09:52:36;;;;;;;0.00;0.00;;;;;20.30;100331.00;;;;5109156;28;20044;-82
2021/11/17 09:55:51;;;;;;;0.00;0.00;;;;;20.40;100340.00;;;;5105543;28;20044;-85
2021/11/17 09:58:26;;;;;;;0.00;0.00;;;;;20.50;100338.00;;;;5106474;28;20414;-85
2021/11/17 10:01:05;;;;;;;0.10;0.10;;;;;20.60;100342.00;;;;5107531;28;20044;-82
2021/11/17 10:03:47;;;;;;;0.10;0.10;;;;;20.70;100331.00;;;;5106877;28;20047;-85
2021/11/17 10:15:14;;;;;;;0.20;0.20;;;;;21.10;100334.00;;;;5108317;28;20126;-82
2021/11/17 10:17:53;;;;;;;0.00;0.00;;;;;21.20;100335.00;;;;5110149;28;20056;-85
2021/11/17 10:20:34;;;;;;;0.00;0.00;;;;;21.30;100343.00;;;;5111384;28;20050;-81
2021/11/17 10:23:08;;;;;;;0.00;0.00;;;;;21.30;100347.00;;;;5111308;28;20040;-84
2021/11/17 10:25:51;;;;;;;0.00;0.00;;;;;21.60;100338.00;;;;5109581;28;20195;-82
2021/11/17 10:28:28;;;;;;;0.25;0.25;;;;;21.80;100340.00;;;;5110601;28;20502;-85
2021/11/17 10:31:27;;;;;;;0.00;0.00;;;;;22.70;100315.00;;;;5111121;28;20130;-80
2021/11/17 10:34:05;;;;;;;0.00;0.00;;;;;22.40;100339.00;;;;5110411;28;20498;-82
2021/11/17 10:36:37;;;;;;;0.00;0.00;;;;;22.30;100346.00;;;;5110860;28;20502;-82
2021/11/17 10:39:15;;;;;;;0.00;0.00;;;;;22.20;100338.00;;;;5110576;28;20039;-84
2021/11/17 10:42:03;;;;;;;0.00;0.00;;;;;22.40;100320.00;;;;5109590;28;20044;-84
2021/11/17 10:44:58;;;;;;;0.08;0.08;;;;;22.90;100311.00;;;;5110619;28;20398;-82
2021/11/17 10:47:45;;;;;;;0.80;0.47;;;;;22.60;100349.00;;;;5110247;28;20509;-80
2021/11/17 10:50:27;;;;;;;1.55;0.30;;;;;21.90;100379.00;;;;5110608;28;20393;-83
2021/11/17 10:53:03;;;;;;;0.03;0.03;;;;;21.60;100376.00;;;;5110301;28;20521;-79
2021/11/17 10:55:42;;;;;;;0.40;0.30;;;;;21.40;100383.00;;;;5110248;28;20074;-82
2021/11/17 10:58:18;;;;;;;0.47;0.47;;;;;21.20;100405.00;;;;5110145;28;20055;-79
2021/11/17 11:00:52;;;;;;;0.00;0.00;;;;;21.10;100397.00;;;;5109716;28;20119;-83
2021/11/17 11:03:24;;;;;;;0.00;0.00;;;;;21.00;100407.00;;;;5110273;28;20096;-81
2021/11/17 11:06:25;;;;;;;0.00;0.00;;;;;20.90;100419.00;;;;5109875;28;20044;-81
2021/11/17 11:09:18;;;;;;;0.00;0.00;;;;;20.90;100417.00;;;;5107642;28;20517;-80
2021/11/17 11:11:53;;;;;;;0.00;0.00;;;;;20.90;100411.00;;;;5109454;28;20044;-85
2021/11/17 11:14:47;;;;;;;0.00;0.00;;;;;20.80;100439.00;;;;5108990;28;20035;-82
2021/11/17 11:17:29;;;;;;;0.00;0.00;;;;;20.60;100437.00;;;;5110735;28;20051;-82
2021/11/17 11:20:17;;;;;;;0.00;0.00;;;;;20.20;100442.00;;;;5109144;28;20409;-80
2021/11/17 11:23:06;;;;;;;0.00;0.00;;;;;19.90;100441.00;;;;5108598;28;20126;-81
2021/11/17 11:25:55;;;;;;;0.00;0.00;;;;;19.70;100435.00;;;;5109530;28;20122;-80
2021/11/17 11:28:38;;;;;;;0.00;0.00;;;;;19.50;100412.00;;;;5108959;28;20429;-81
2021/11/17 11:31:09;;;;;;;0.00;0.00;;;;;19.40;100414.00;;;;5109921;28;20051;-80
2021/11/17 11:33:52;;;;;;;0.40;0.40;;;;;19.30;100404.00;;;;5109860;28;20039;-80
2021/11/17 11:36:22;;;;;;;0.00;0.00;;;;;19.20;100406.00;;;;5109898;28;20118;-81
2021/11/17 11:38:59;;;;;;;0.00;0.00;;;;;19.10;100409.00;;;;5109929;28;20058;-81
2021/11/17 11:41:58;;;;;;;1.27;0.08;;;;;19.10;100409.00;;;;5108474;28;20086;-84
2021/11/17 11:44:42;;;;;;;0.75;0.32;;;;;19.20;100399.00;;;;5109046;28;20043;-83
2021/11/17 11:47:12;;;;;;;1.65;0.25;;;;;19.10;100405.00;;;;5109384;28;20050;-78
2021/11/17 11:49:57;;;;;;;0.00;0.00;;;;;19.00;100392.00;;;;5109130;28;20618;-81
2021/11/17 11:52:34;;;;;;;0.45;0.10;;;;;19.00;100406.00;;;;5091342;28;20138;-85
2021/11/17 11:55:06;;;;;;;0.10;0.10;;;;;18.90;100414.00;;;;5107949;27;20047;-84
2021/11/17 11:57:48;;;;;;;0.00;0.00;;;;;18.90;100401.00;;;;5108909;28;20055;-80
2021/11/17 12:00:31;;;;;;;0.00;0.00;;;;;18.90;100406.00;;;;5109321;28;20097;-79
2021/11/17 12:03:11;;;;;;;0.00;0.00;;;;;18.90;100414.00;;;;5109768;28;20040;-82
2021/11/17 12:05:41;;;;;;;0.25;0.22;;;;;18.80;100402.00;;;;5109357;28;20054;-79
2021/11/17 12:08:23;;;;;;;0.70;0.15;;;;;18.80;100385.00;;;;5109467;28;20131;-80
2021/11/17 12:11:13;;;;;;;0.00;0.00;;;;;18.90;100410.00;;;;5108623;28;20528;-82
2021/11/17 12:14:05;;;;;;;0.00;0.00;;;;;19.00;100388.00;;;;5108384;28;20042;-79
2021/11/17 12:16:44;;;;;;;0.00;0.00;;;;;19.20;100411.00;;;;5107347;28;20048;-80
2021/11/17 12:19:34;;;;;;;0.00;0.00;;;;;19.30;100417.00;;;;5109242;28;20051;-81
2021/11/17 12:22:22;;;;;;;0.63;0.10;;;;;19.20;100405.00;;;;5107055;28;20529;-79
2021/11/17 12:25:09;;;;;;;0.00;0.00;;;;;19.00;100410.00;;;;5109104;28;20062;-83
2021/11/17 12:27:41;;;;;;;0.00;0.00;;;;;19.00;100400.00;;;;5108192;28;20041;-85
2021/11/17 12:30:19;;;;;;;0.10;0.10;;;;;19.00;100405.00;;;;5107028;28;20107;-81
2021/11/17 12:33:02;;;;;;;0.00;0.00;;;;;18.90;100421.00;;;;5107054;28;20032;-80
2021/11/17 12:35:36;;;;;;;0.00;0.00;;;;;18.80;100396.00;;;;5108203;28;20124;-85
2021/11/17 12:38:09;;;;;;;0.00;0.00;;;;;18.80;100393.00;;;;5108424;28;20036;-82
2021/11/17 12:40:51;;;;;;;0.00;0.00;;;;;18.70;100398.00;;;;5108121;28;20047;-82
2021/11/17 12:44:01;;;;;;;0.45;0.30;;;;;18.70;100412.00;;;;5108528;28;20036;-79
2021/11/17 12:46:57;;;;;;;0.35;0.10;;;;;18.70;100424.00;;;;5097413;28;20433;-84
2021/11/17 12:49:30;;;;;;;0.10;0.00;;;;;18.60;100427.00;;;;5108633;28;20050;-80
2021/11/17 12:52:11;;;;;;;0.05;0.05;;;;;18.50;100410.00;;;;5108020;28;20448;-80
2021/11/17 12:54:55;;;;;;;0.10;0.10;;;;;18.40;100427.00;;;;5107779;28;20123;-79
2021/11/17 12:57:33;;;;;;;0.22;0.22;;;;;18.50;100430.00;;;;5108181;28;20079;-81
2021/11/17 13:00:21;;;;;;;0.00;0.00;;;;;18.40;100416.00;;;;5108270;28;20043;-80
2021/11/17 13:03:04;;;;;;;0.00;0.00;;;;;18.40;100416.00;;;;5107948;28;20071;-83
2021/11/17 13:05:38;;;;;;;0.00;0.00;;;;;18.40;100408.00;;;;5107948;28;20436;-84
2021/11/17 13:08:15;;;;;;;0.13;0.08;;;;;18.40;100400.00;;;;5108150;28;20044;-83
2021/11/17 13:10:50;;;;;;;0.00;0.00;;;;;18.40;100406.00;;;;5107590;28;20039;-79
2021/11/17 13:13:38;;;;;;;0.15;0.15;;;;;18.50;100411.00;;;;5106366;28;20052;-79
2021/11/17 13:16:38;;;;;;;0.03;0.03;;;;;18.50;100408.00;;;;5107614;28;20044;-82
2021/11/17 13:19:30;;;;;;;0.80;0.10;;;;;18.50;100419.00;;;;5106836;28;20100;-79
2021/11/17 13:22:17;;;;;;;0.08;0.08;;;;;18.70;100419.00;;;;5107944;28;20043;-81
2021/11/17 13:24:50;;;;;;;0.32;0.10;;;;;18.80;100422.00;;;;5108071;28;20044;-78
2021/11/17 13:27:37;;;;;;;0.00;0.00;;;;;18.80;100417.00;;;;5107036;28;20036;-80
2021/11/17 13:30:27;;;;;;;0.00;0.00;;;;;19.00;100404.00;;;;5106212;28;20055;-81
2021/11/17 13:32:59;;;;;;;0.15;0.15;;;;;19.20;100408.00;;;;5107738;28;20553;-81
2021/11/17 13:35:33;;;;;;;0.00;0.00;;;;;19.30;100415.00;;;;5088856;28;20417;-83
2021/11/17 13:38:20;;;;;;;1.10;0.30;;;;;19.50;100396.00;;;;5107393;28;20074;-80
2021/11/17 13:40:56;;;;;;;0.00;0.00;;;;;19.60;100392.00;;;;5107022;28;20046;-83
2021/11/17 13:43:27;;;;;;;0.60;0.20;;;;;19.70;100402.00;;;;5107666;28;20122;-81
2021/11/17 13:46:02;;;;;;;0.00;0.00;;;;;19.60;100404.00;;;;5107607;28;20418;-81
2021/11/17 13:48:36;;;;;;;0.00;0.00;;;;;19.60;100396.00;;;;5106541;28;20127;-81
2021/11/17 13:51:07;;;;;;;0.20;0.00;;;;;19.50;100417.00;;;;5105610;28;20209;-86
2021/11/17 13:53:37;;;;;;;0.77;0.77;;;;;19.30;100415.00;;;;5112568;28;20054;-81
2021/11/17 13:56:30;;;;;;;0.20;0.20;;;;;19.20;100402.00;;;;5110908;28;20047;-81
2021/11/17 13:59:00;;;;;;;0.50;0.20;;;;;19.00;100408.00;;;;5106668;28;20060;-81
2021/11/17 14:01:30;;;;;;;0.00;0.00;;;;;18.90;100414.00;;;;5107722;28;20370;-81
2021/11/17 14:04:00;;;;;;;0.00;0.00;;;;;18.80;100412.00;;;;5106154;28;20036;-79
2021/11/17 14:06:30;;;;;;;0.08;0.08;;;;;18.60;100424.00;;;;5107259;28;20537;-80
2021/11/17 14:08:59;;;;;;;0.00;0.00;;;;;18.50;100425.00;;;;5107528;28;20036;-81
2021/11/17 14:11:31;;;;;;;0.00;0.00;;;;;18.30;100446.00;;;;5107035;28;20048;-82
2021/11/17 14:14:01;;;;;;;0.00;0.00;;;;;18.30;100433.00;;;;5106709;28;20051;-82
2021/11/17 14:16:31;;;;;;;0.00;0.00;;;;;18.30;100437.00;;;;5106960;28;20063;-82
2021/11/17 14:19:01;;;;;;;0.00;0.00;;;;;18.20;100428.00;;;;5107407;28;20085;-81
2021/11/17 14:21:31;;;;;;;0.00;0.00;;;;;18.20;100446.00;;;;5106041;28;20051;-81
2021/11/17 14:24:01;;;;;;;0.00;0.00;;;;;18.10;100444.00;;;;5106132;28;20071;-81
2021/11/17 14:26:32;;;;;;;0.00;0.00;;;;;18.10;100453.00;;;;5105741;28;20043;-78
2021/11/17 14:29:14;;;;;;;0.00;0.00;;;;;18.00;100457.00;;;;5105971;28;20061;-81
2021/11/17 14:31:50;;;;;;;0.35;0.35;;;;;18.00;100461.00;;;;5106195;28;20118;-80
2021/11/17 14:34:20;;;;;;;0.00;0.00;;;;;18.10;100450.00;;;;5105911;28;20051;-80
2021/11/17 14:37:01;;;;;;;0.00;0.00;;;;;18.10;100452.00;;;;5105643;28;20050;-83
2021/11/17 14:39:37;;;;;;;0.00;0.00;;;;;18.10;100460.00;;;;5105132;28;20082;-81
2021/11/17 14:42:08;;;;;;;0.00;0.00;;;;;18.10;100461.00;;;;5105203;28;20047;-80
2021/11/17 14:44:39;;;;;;;0.00;0.00;;;;;18.00;100482.00;;;;5105834;28;20542;-84
2021/11/17 14:47:08;;;;;;;0.10;0.00;;;;;17.80;100468.00;;;;5105092;28;20414;-80
2021/11/17 14:49:38;;;;;;;0.00;0.00;;;;;17.80;100462.00;;;;5106672;28;20043;-83
2021/11/17 14:52:15;;;;;;;0.15;0.08;;;;;17.90;100468.00;;;;5105624;28;20051;-81
2021/11/17 14:54:46;;;;;;;0.00;0.00;;;;;17.90;100472.00;;;;5105844;28;20035;-81
2021/11/17 14:57:16;;;;;;;0.00;0.00;;;;;17.80;100475.00;;;;5108407;28;20433;-83
2021/11/17 14:59:45;;;;;;;0.00;0.00;;;;;17.70;100478.00;;;;5109119;28;20051;-79
2021/11/17 15:02:17;;;;;;;0.00;0.00;;;;;17.80;100470.00;;;;5109854;28;20052;-80
2021/11/17 15:04:47;;;;;;;0.00;0.00;;;;;17.70;100471.00;;;;5110220;28;20054;-84
2021/11/17 15:07:16;;;;;;;0.00;0.00;;;;;17.80;100461.00;;;;5109072;28;20043;-81
2021/11/17 15:09:46;;;;;;;0.00;0.00;;;;;17.80;100478.00;;;;5110319;28;20841;-82
2021/11/17 15:12:20;;;;;;;0.15;0.15;;;;;17.90;100476.00;;;;5110549;28;20130;-81
2021/11/17 15:14:50;;;;;;;0.08;0.08;;;;;18.00;100482.00;;;;5110354;28;20088;-80
2021/11/17 15:17:20;;;;;;;0.00;0.00;;;;;18.10;100473.00;;;;5108371;28;20055;-79
2021/11/17 15:19:50;;;;;;;0.00;0.00;;;;;18.20;100466.00;;;;5109271;28;20043;-79
2021/11/17 15:22:22;;;;;;;0.00;0.00;;;;;18.30;100473.00;;;;5109333;28;20069;-82
2021/11/17 15:24:52;;;;;;;0.65;0.10;;;;;18.30;100483.00;;;;5109628;28;20063;-82
2021/11/17 15:27:36;;;;;;;0.00;0.00;;;;;18.10;100491.00;;;;5109958;28;20410;-83
2021/11/17 15:30:10;;;;;;;0.10;0.00;;;;;18.10;100490.00;;;;5109408;28;20421;-88
2021/11/17 15:32:42;;;;;;;0.00;0.00;;;;;18.10;100483.00;;;;5108315;28;20043;-88
2021/11/17 15:35:12;;;;;;;0.00;0.00;;;;;18.20;100480.00;;;;5108395;28;20048;-84
2021/11/17 15:37:43;;;;;;;0.00;0.00;;;;;18.40;100460.00;;;;5110036;28;20039;-84
2021/11/17 15:40:14;;;;;;;0.25;0.05;;;;;18.40;100484.00;;;;5110132;28;20387;-85